Unicom:                    122.8

AWOS:                  118.275

Elevation           1458’ MSL

TPA:                   2500’ MSL

06/24:         5003’ L   75’ W

PAPI:       06/Left     24/Left

(Operate lights on unicom freq.)

Traffic Pattern: Left

Beacon: Sunset to Sunrise

Windsock: yes, lighted

Segmented Circle: No

 

Cleveland Center: 126.72/291.65

FSS: Altoona

[Source: ADDS]
METAR
KFKL 042256Z AUTO 20007KT 10SM SCT039 03/M01 A2987 RMK AO2 SLP128 T00281006 =
KFKL 042320Z 0500/0524 23005KT P6SM BKN035 FM050900 33005KT 6SM -SN OVC008 FM051400 34012G18KT P6SM BKN015
TAF
KFKL 042320Z 0500/0524 23005KT P6SM BKN035 FM050900 33005KT 6SM -SN OVC008 FM051400 34012G18KT P6SM BKN015 =
[Source: ADDS]
METAR
KDUJ 042319Z AUTO 20005KT 10SM SCT008 02/00 A2986 RMK AO2 T00220000 =
KDUJ 042320Z 0500/0524 23005KT P6SM BKN035 FM050900 33005KT 6SM -SN OVC008 FM051400 34012G18KT P6SM BKN015
TAF
KDUJ 042320Z 0500/0524 23005KT P6SM BKN035 FM050900 33005KT 6SM -SN OVC008 FM051400 34012G18KT P6SM BKN015 =

Nearby Overnight Accommodations.

The Park Inn by Radisson

45 Holiday Inn Rd

Clarion, PA 16214

Phone # (814) 226-8850

Park Inn by Radisson

45 Holiday Inn Rd Clarion, PA 16214 Phone # (814) 226-8850

Microtel

121 North Point Drive

Clarion, PA 16214

Phone # (814) 227-2223

Microtel

121 North Point Drive Clarion, PA 16214 Phone # (814) 227-2223

Hampton Inn and Suites

4 Hospital Drive

Clarion, PA 16214

Phone # (814) 226-4444

Hampton Inn & Suites

4 Hospital Drive Clarion, PA 16214 Phone # (814) 226-4444

Comfort Inn

129 Dolby Street

Clarion, PA 16214

Phone # (814) 226-5230

Comfort Inn

129 Dolby Street Clarion, PA 16214 Phone # (814) 226-5230

Quality Inn

24 United Drive

Clarion, PA 16214 

Phone # (814) 226-8682 


Quality Inn

24 United Drive Clarion, PA 16214 Phone # (814) 226-8682

Holiday Inn Express

325 Perkins Road

Clarion, PA 16214

Phone (814) 223-4010


Holiday Inn Express

325 Perkins Road Clarion, PA 16214 Phone (814) 223-4010

Super 8 Motel

135 Hotel Road

Clarion, PA 16214

Phone # (800) 536-9326

Super 8 Motel

135 Hotel Road Clarion, PA 16214 Phone # (800) 536-9326


Transportation.

Enterprise

545 South Fifth Avenue

Clarion, PA 16214

Phone # (814) 227-1284

Enterprise

545 South Fifth Avenue Clarion, PA 16214 Phone # (814) 227-1284

Clarion County Taxi, Inc.

East End Road

Clarion County Taxi, Inc.

Shippenville, PA 16254

Phone # (814) 226-8635

 *cash, check, debit


Choice Cab Co.

Clarion, PA 16214

Phone # (814) 221- 4992

 *cash only